PWSweather.com
Personal Weather Stations
Station Observations
MENWDWX1
Menstrie, ScotlandGB

MenstrieScotlandGB

Lat: 56.148322, Lon: -3.85483

Elevation: 62

Station Type: Davis Vantage Pro 2

High Low Average
Temperature 55.6°F13.1°C 44.4°F6.9°C 51.3°F10.7°C
Dew Point 49.5°F9.7°C 39.2°F4.0°C 44.9°F7.2°C
Winds 13.8 mph 22.2 kmh Calm Calm 4.0 mph SW6.4 kmh SW
Wind Gusts 24.2 mph38.9 kmh -- 7.0 mph11.3 kmh
Humidity 88% 73% 79%
Pressure 29.86 in1011.2 mb 29.63 in1003.4 mb -
Precipitation 0.15 in3.8 mm - -
Hour Temp Dew Point Humidity Winds Wind Gusts Pressure Precip Precip Rate Daily Precip Total
12:00 AM 44.8°F7.1°C 39.6°F4.2°C 82% Calm Calm 1.2 mph1.9 kmh 29.63 in1003.4 mb - 0.00 in0.0 mm 0.00 in0.0 mm
12:05 AM 44.8°F7.1°C 39.6°F4.2°C 82% 1.2 mph NW1.9 kmh NW 1.2 mph1.9 kmh 29.63 in1003.4 mb - 0.00 in0.0 mm 0.00 in0.0 mm
12:10 AM 44.7°F7.1°C 39.2°F4.0°C 81% 1.2 mph NW1.9 kmh NW 3.5 mph5.6 kmh 29.64 in1003.7 mb - 0.00 in0.0 mm 0.00 in0.0 mm
12:15 AM 44.5°F6.9°C 39.3°F4.1°C 82% 1.2 mph NW1.9 kmh NW 3.5 mph5.6 kmh 29.64 in1003.7 mb - 0.00 in0.0 mm 0.00 in0.0 mm
12:20 AM 44.4°F6.9°C 39.2°F4.0°C 82% 2.3 mph WNW3.7 kmh WNW 2.3 mph3.7 kmh 29.64 in1003.7 mb - 0.00 in0.0 mm 0.00 in0.0 mm
12:25 AM 44.5°F6.9°C 39.7°F4.3°C 83% 1.2 mph WNW1.9 kmh WNW 3.5 mph5.6 kmh 29.64 in1003.7 mb - 0.00 in0.0 mm 0.00 in0.0 mm
12:30 AM 44.7°F7.1°C 39.9°F4.4°C 83% 2.3 mph W3.7 kmh W 3.5 mph5.6 kmh 29.65 in1004.1 mb - 0.00 in0.0 mm 0.00 in0.0 mm
12:35 AM 45.1°F7.3°C 40.2°F4.6°C 83% 3.5 mph WSW5.6 kmh WSW 5.8 mph9.3 kmh 29.65 in1004.1 mb - 0.00 in0.0 mm 0.00 in0.0 mm
12:40 AM 45.4°F7.4°C 40.2°F4.6°C 82% 3.5 mph W5.6 kmh W 6.9 mph11.1 kmh 29.65 in1004.1 mb - 0.00 in0.0 mm 0.00 in0.0 mm
12:45 AM 45.8°F7.7°C 40.3°F4.6°C 81% 4.6 mph W7.4 kmh W 6.9 mph11.1 kmh 29.65 in1004.1 mb - 0.00 in0.0 mm 0.00 in0.0 mm
12:50 AM 46.2°F7.9°C 40.7°F4.8°C 81% 5.8 mph WNW9.3 kmh WNW 10.4 mph16.7 kmh 29.66 in1004.4 mb - 0.00 in0.0 mm 0.00 in0.0 mm
12:55 AM 46.6°F8.1°C 40.8°F4.9°C 80% 8.1 mph WSW13.0 kmh WSW 11.5 mph18.5 kmh 29.65 in1004.1 mb - 0.00 in0.0 mm 0.00 in0.0 mm
01:00 AM 47.0°F8.3°C 40.5°F4.7°C 78% 5.8 mph W9.3 kmh W 6.9 mph11.1 kmh 29.66 in1004.4 mb - 0.00 in0.0 mm 0.00 in0.0 mm
01:05 AM 47.2°F8.4°C 40.7°F4.8°C 78% 1.2 mph NW1.9 kmh NW 3.5 mph5.6 kmh 29.66 in1004.4 mb - 0.00 in0.0 mm 0.00 in0.0 mm
01:10 AM 47.0°F8.3°C 40.5°F4.7°C 78% 1.2 mph WNW1.9 kmh WNW 3.5 mph5.6 kmh 29.66 in1004.4 mb - 0.00 in0.0 mm 0.00 in0.0 mm
01:15 AM 46.8°F8.2°C 40.3°F4.6°C 78% 2.3 mph W3.7 kmh W 3.5 mph5.6 kmh 29.66 in1004.4 mb - 0.00 in0.0 mm 0.00 in0.0 mm
01:20 AM 46.7°F8.2°C 40.2°F4.6°C 78% 2.3 mph W3.7 kmh W 5.8 mph9.3 kmh 29.66 in1004.4 mb - 0.00 in0.0 mm 0.00 in0.0 mm
01:25 AM 46.9°F8.3°C 40.4°F4.7°C 78% 1.2 mph SSW1.9 kmh SSW 2.3 mph3.7 kmh 29.66 in1004.4 mb - 0.00 in0.0 mm 0.00 in0.0 mm
01:30 AM 47.0°F8.3°C 40.5°F4.7°C 78% Calm Calm 2.3 mph3.7 kmh 29.66 in1004.4 mb - 0.00 in0.0 mm 0.00 in0.0 mm
01:35 AM 47.0°F8.3°C 40.5°F4.7°C 78% 1.2 mph WSW1.9 kmh WSW 3.5 mph5.6 kmh 29.66 in1004.4 mb - 0.00 in0.0 mm 0.00 in0.0 mm
01:40 AM 47.0°F8.3°C 40.5°F4.7°C 78% 3.5 mph WSW5.6 kmh WSW 3.5 mph5.6 kmh 29.66 in1004.4 mb - 0.00 in0.0 mm 0.00 in0.0 mm
01:45 AM 46.9°F8.3°C 40.7°F4.8°C 79% 3.5 mph WSW5.6 kmh WSW 5.8 mph9.3 kmh 29.66 in1004.4 mb - 0.00 in0.0 mm 0.00 in0.0 mm
01:50 AM 46.8°F8.2°C 40.6°F4.8°C 79% 3.5 mph W5.6 kmh W 3.5 mph5.6 kmh 29.66 in1004.4 mb - 0.00 in0.0 mm 0.00 in0.0 mm
01:55 AM 46.9°F8.3°C 40.7°F4.8°C 79% 3.5 mph WNW5.6 kmh WNW 5.8 mph9.3 kmh 29.67 in1004.7 mb - 0.00 in0.0 mm 0.00 in0.0 mm
02:00 AM 47.0°F8.3°C 41.1°F5.1°C 80% 2.3 mph WNW3.7 kmh WNW 3.5 mph5.6 kmh 29.67 in1004.7 mb - 0.00 in0.0 mm 0.00 in0.0 mm
02:05 AM 47.2°F8.4°C 41.3°F5.2°C 80% 4.6 mph W7.4 kmh W 9.2 mph14.8 kmh 29.67 in1004.7 mb - 0.00 in0.0 mm 0.00 in0.0 mm
02:10 AM 47.4°F8.6°C 41.5°F5.3°C 80% 5.8 mph W9.3 kmh W 8.1 mph13.0 kmh 29.66 in1004.4 mb - 0.00 in0.0 mm 0.00 in0.0 mm
02:15 AM 47.4°F8.6°C 41.2°F5.1°C 79% 1.2 mph W1.9 kmh W 9.2 mph14.8 kmh 29.67 in1004.7 mb - 0.00 in0.0 mm 0.00 in0.0 mm
02:20 AM 47.4°F8.6°C 41.2°F5.1°C 79% 2.3 mph W3.7 kmh W 5.8 mph9.3 kmh 29.67 in1004.7 mb - 0.00 in0.0 mm 0.00 in0.0 mm
02:25 AM 47.5°F8.6°C 41.3°F5.2°C 79% 6.9 mph WSW11.1 kmh WSW 8.1 mph13.0 kmh 29.66 in1004.4 mb - 0.00 in0.0 mm 0.00 in0.0 mm
02:30 AM 47.6°F8.7°C 41.1°F5.1°C 78% 6.9 mph WSW11.1 kmh WSW 11.5 mph18.5 kmh 29.67 in1004.7 mb - 0.00 in0.0 mm 0.00 in0.0 mm
02:35 AM 47.7°F8.7°C 41.2°F5.1°C 78% 3.5 mph W5.6 kmh W 6.9 mph11.1 kmh 29.66 in1004.4 mb - 0.00 in0.0 mm 0.00 in0.0 mm
02:40 AM 47.7°F8.7°C 41.2°F5.1°C 78% 2.3 mph WNW3.7 kmh WNW 3.5 mph5.6 kmh 29.66 in1004.4 mb - 0.00 in0.0 mm 0.00 in0.0 mm
02:45 AM 47.6°F8.7°C 41.4°F5.2°C 79% 1.2 mph WNW1.9 kmh WNW 5.8 mph9.3 kmh 29.67 in1004.7 mb - 0.00 in0.0 mm 0.00 in0.0 mm
02:50 AM 47.8°F8.8°C 41.6°F5.3°C 79% 5.8 mph W9.3 kmh W 9.2 mph14.8 kmh 29.67 in1004.7 mb - 0.00 in0.0 mm 0.00 in0.0 mm
02:55 AM 47.9°F8.8°C 41.7°F5.4°C 79% 6.9 mph W11.1 kmh W 11.5 mph18.5 kmh 29.67 in1004.7 mb - 0.00 in0.0 mm 0.00 in0.0 mm
03:00 AM 47.9°F8.8°C 41.7°F5.4°C 79% 4.6 mph W7.4 kmh W 11.5 mph18.5 kmh 29.67 in1004.7 mb - 0.00 in0.0 mm 0.00 in0.0 mm
03:05 AM 47.8°F8.8°C 41.6°F5.3°C 79% 3.5 mph W5.6 kmh W 6.9 mph11.1 kmh 29.67 in1004.7 mb - 0.00 in0.0 mm 0.00 in0.0 mm
03:10 AM 47.8°F8.8°C 41.6°F5.3°C 79% 4.6 mph WSW7.4 kmh WSW 6.9 mph11.1 kmh 29.67 in1004.7 mb - 0.00 in0.0 mm 0.00 in0.0 mm
03:15 AM 47.8°F8.8°C 41.9°F5.5°C 80% 2.3 mph W3.7 kmh W 3.5 mph5.6 kmh 29.67 in1004.7 mb - 0.00 in0.0 mm 0.00 in0.0 mm
03:20 AM 47.8°F8.8°C 42.3°F5.7°C 81% 3.5 mph W5.6 kmh W 3.5 mph5.6 kmh 29.67 in1004.7 mb - 0.00 in0.0 mm 0.00 in0.0 mm
03:25 AM 47.7°F8.7°C 42.2°F5.7°C 81% 4.6 mph WSW7.4 kmh WSW 10.4 mph16.7 kmh 29.67 in1004.7 mb - 0.00 in0.0 mm 0.00 in0.0 mm
03:30 AM 47.7°F8.7°C 42.2°F5.7°C 81% 4.6 mph WSW7.4 kmh WSW 6.9 mph11.1 kmh 29.68 in1005.1 mb - 0.00 in0.0 mm 0.00 in0.0 mm
03:35 AM 47.6°F8.7°C 42.1°F5.6°C 81% 4.6 mph WNW7.4 kmh WNW 10.4 mph16.7 kmh 29.68 in1005.1 mb - 0.00 in0.0 mm 0.00 in0.0 mm
03:40 AM 47.5°F8.6°C 42.0°F5.6°C 81% 2.3 mph WSW3.7 kmh WSW 9.2 mph14.8 kmh 29.68 in1005.1 mb - 0.00 in0.0 mm 0.00 in0.0 mm
03:45 AM 47.4°F8.6°C 41.8°F5.4°C 81% 2.3 mph W3.7 kmh W 3.5 mph5.6 kmh 29.68 in1005.1 mb - 0.00 in0.0 mm 0.00 in0.0 mm
03:50 AM 47.3°F8.5°C 41.8°F5.4°C 81% 4.6 mph WSW7.4 kmh WSW 10.4 mph16.7 kmh 29.68 in1005.1 mb - 0.00 in0.0 mm 0.00 in0.0 mm
03:55 AM 47.4°F8.6°C 41.5°F5.3°C 80% 4.6 mph WNW7.4 kmh WNW 6.9 mph11.1 kmh 29.68 in1005.1 mb - 0.00 in0.0 mm 0.00 in0.0 mm
04:00 AM 47.6°F8.7°C 41.4°F5.2°C 79% 4.6 mph W7.4 kmh W 8.1 mph13.0 kmh 29.68 in1005.1 mb - 0.00 in0.0 mm 0.00 in0.0 mm
04:05 AM 47.8°F8.8°C 41.6°F5.3°C 79% 5.8 mph WSW9.3 kmh WSW 11.5 mph18.5 kmh 29.69 in1005.4 mb - 0.00 in0.0 mm 0.00 in0.0 mm
04:10 AM 48.0°F8.9°C 41.8°F5.4°C 79% 4.6 mph WSW7.4 kmh WSW 8.1 mph13.0 kmh 29.69 in1005.4 mb - 0.00 in0.0 mm 0.00 in0.0 mm
04:15 AM 48.1°F8.9°C 41.6°F5.3°C 78% 3.5 mph WSW5.6 kmh WSW 11.5 mph18.5 kmh 29.69 in1005.4 mb - 0.00 in0.0 mm 0.00 in0.0 mm
04:20 AM 48.1°F8.9°C 41.6°F5.3°C 78% 3.5 mph NW5.6 kmh NW 3.5 mph5.6 kmh 29.69 in1005.4 mb - 0.00 in0.0 mm 0.00 in0.0 mm
04:25 AM 48.0°F8.9°C 41.4°F5.2°C 78% 2.3 mph W3.7 kmh W 3.5 mph5.6 kmh 29.70 in1005.8 mb - 0.00 in0.0 mm 0.00 in0.0 mm
04:30 AM 47.8°F8.8°C 41.6°F5.3°C 79% 2.3 mph WSW3.7 kmh WSW 4.6 mph7.4 kmh 29.70 in1005.8 mb - 0.00 in0.0 mm 0.00 in0.0 mm
04:35 AM 47.6°F8.7°C 41.4°F5.2°C 79% 3.5 mph W5.6 kmh W 5.8 mph9.3 kmh 29.70 in1005.8 mb - 0.00 in0.0 mm 0.00 in0.0 mm
04:40 AM 47.6°F8.7°C 41.4°F5.2°C 79% 1.2 mph NW1.9 kmh NW 3.5 mph5.6 kmh 29.70 in1005.8 mb - 0.00 in0.0 mm 0.00 in0.0 mm
04:45 AM 47.6°F8.7°C 41.7°F5.4°C 80% 3.5 mph WSW5.6 kmh WSW 5.8 mph9.3 kmh 29.70 in1005.8 mb - 0.00 in0.0 mm 0.00 in0.0 mm
04:50 AM 47.5°F8.6°C 41.3°F5.2°C 79% Calm Calm -- 29.70 in1005.8 mb - 0.00 in0.0 mm 0.00 in0.0 mm
04:55 AM 47.5°F8.6°C 41.3°F5.2°C 79% Calm Calm -- 29.70 in1005.8 mb - 0.00 in0.0 mm 0.00 in0.0 mm
05:00 AM 47.4°F8.6°C 41.5°F5.3°C 80% 2.3 mph NW3.7 kmh NW 4.6 mph7.4 kmh 29.70 in1005.8 mb - 0.00 in0.0 mm 0.00 in0.0 mm
05:05 AM 47.5°F8.6°C 41.6°F5.3°C 80% 2.3 mph WSW3.7 kmh WSW 8.1 mph13.0 kmh 29.71 in1006.1 mb - 0.00 in0.0 mm 0.00 in0.0 mm
05:10 AM 47.8°F8.8°C 41.9°F5.5°C 80% 5.8 mph WSW9.3 kmh WSW 6.9 mph11.1 kmh 29.71 in1006.1 mb - 0.00 in0.0 mm 0.00 in0.0 mm
05:15 AM 48.1°F8.9°C 42.2°F5.7°C 80% 4.6 mph W7.4 kmh W 11.5 mph18.5 kmh 29.71 in1006.1 mb - 0.00 in0.0 mm 0.00 in0.0 mm
05:20 AM 48.4°F9.1°C 42.2°F5.7°C 79% 3.5 mph SW5.6 kmh SW 6.9 mph11.1 kmh 29.71 in1006.1 mb - 0.00 in0.0 mm 0.00 in0.0 mm
05:25 AM 48.6°F9.2°C 42.4°F5.8°C 79% 3.5 mph WSW5.6 kmh WSW 6.9 mph11.1 kmh 29.72 in1006.4 mb - 0.00 in0.0 mm 0.00 in0.0 mm
05:30 AM 48.7°F9.3°C 42.5°F5.8°C 79% 4.6 mph WSW7.4 kmh WSW 6.9 mph11.1 kmh 29.72 in1006.4 mb - 0.00 in0.0 mm 0.00 in0.0 mm
05:35 AM 48.8°F9.3°C 42.6°F5.9°C 79% 2.3 mph W3.7 kmh W 5.8 mph9.3 kmh 29.72 in1006.4 mb - 0.00 in0.0 mm 0.00 in0.0 mm
05:40 AM 48.8°F9.3°C 42.2°F5.7°C 78% Calm Calm 2.3 mph3.7 kmh 29.72 in1006.4 mb - 0.00 in0.0 mm 0.00 in0.0 mm
05:45 AM 48.8°F9.3°C 42.6°F5.9°C 79% 3.5 mph W5.6 kmh W 3.5 mph5.6 kmh 29.73 in1006.8 mb - 0.00 in0.0 mm 0.00 in0.0 mm
05:50 AM 48.7°F9.3°C 42.5°F5.8°C 79% 1.2 mph WSW1.9 kmh WSW 2.3 mph3.7 kmh 29.73 in1006.8 mb - 0.00 in0.0 mm 0.00 in0.0 mm
05:55 AM 48.8°F9.3°C 42.6°F5.9°C 79% 2.3 mph W3.7 kmh W 3.5 mph5.6 kmh 29.73 in1006.8 mb - 0.00 in0.0 mm 0.00 in0.0 mm
06:00 AM 48.8°F9.3°C 42.6°F5.9°C 79% 1.2 mph W1.9 kmh W 2.3 mph3.7 kmh 29.73 in1006.8 mb - 0.00 in0.0 mm 0.00 in0.0 mm
06:05 AM 48.7°F9.3°C 42.5°F5.8°C 79% 3.5 mph W5.6 kmh W 6.9 mph11.1 kmh 29.74 in1007.1 mb - 0.00 in0.0 mm 0.00 in0.0 mm
06:10 AM 48.8°F9.3°C 42.2°F5.7°C 78% 5.8 mph WSW9.3 kmh WSW 11.5 mph18.5 kmh 29.74 in1007.1 mb - 0.00 in0.0 mm 0.00 in0.0 mm
06:15 AM 49.0°F9.4°C 42.4°F5.8°C 78% 3.5 mph W5.6 kmh W 8.1 mph13.0 kmh 29.74 in1007.1 mb - 0.00 in0.0 mm 0.00 in0.0 mm
06:20 AM 49.0°F9.4°C 42.4°F5.8°C 78% 5.8 mph WSW9.3 kmh WSW 9.2 mph14.8 kmh 29.74 in1007.1 mb - 0.00 in0.0 mm 0.00 in0.0 mm
06:25 AM 49.0°F9.4°C 42.4°F5.8°C 78% 2.3 mph WNW3.7 kmh WNW 2.3 mph3.7 kmh 29.75 in1007.5 mb - 0.00 in0.0 mm 0.00 in0.0 mm
06:30 AM 48.9°F9.4°C 42.3°F5.7°C 78% 2.3 mph WSW3.7 kmh WSW 3.5 mph5.6 kmh 29.75 in1007.5 mb - 0.00 in0.0 mm 0.00 in0.0 mm
06:35 AM 48.8°F9.3°C 42.2°F5.7°C 78% 3.5 mph WSW5.6 kmh WSW 8.1 mph13.0 kmh 29.75 in1007.5 mb - 0.00 in0.0 mm 0.00 in0.0 mm
06:40 AM 48.7°F9.3°C 42.1°F5.6°C 78% 3.5 mph W5.6 kmh W 8.1 mph13.0 kmh 29.75 in1007.5 mb - 0.00 in0.0 mm 0.00 in0.0 mm
06:45 AM 48.7°F9.3°C 42.1°F5.6°C 78% 3.5 mph WSW5.6 kmh WSW 4.6 mph7.4 kmh 29.75 in1007.5 mb - 0.00 in0.0 mm 0.00 in0.0 mm
06:50 AM 48.6°F9.2°C 42.0°F5.6°C 78% 3.5 mph W5.6 kmh W 5.8 mph9.3 kmh 29.75 in1007.5 mb - 0.00 in0.0 mm 0.00 in0.0 mm
06:55 AM 48.3°F9.1°C 41.8°F5.4°C 78% 1.2 mph W1.9 kmh W 2.3 mph3.7 kmh 29.75 in1007.5 mb - 0.00 in0.0 mm 0.00 in0.0 mm
07:00 AM 48.0°F8.9°C 41.5°F5.3°C 78% 2.3 mph WSW3.7 kmh WSW 3.5 mph5.6 kmh 29.75 in1007.5 mb - 0.00 in0.0 mm 0.00 in0.0 mm
07:05 AM 47.7°F8.7°C 41.5°F5.3°C 79% 2.3 mph WSW3.7 kmh WSW 3.5 mph5.6 kmh 29.75 in1007.5 mb - 0.00 in0.0 mm 0.00 in0.0 mm
07:10 AM 47.4°F8.6°C 41.2°F5.1°C 79% 3.5 mph W5.6 kmh W 5.8 mph9.3 kmh 29.75 in1007.5 mb - 0.00 in0.0 mm 0.00 in0.0 mm
07:15 AM 47.1°F8.4°C 40.9°F4.9°C 79% 2.3 mph W3.7 kmh W 3.5 mph5.6 kmh 29.75 in1007.5 mb - 0.00 in0.0 mm 0.00 in0.0 mm
07:20 AM 47.0°F8.3°C 41.1°F5.1°C 80% 2.3 mph W3.7 kmh W 3.5 mph5.6 kmh 29.76 in1007.8 mb - 0.00 in0.0 mm 0.00 in0.0 mm
07:25 AM 47.0°F8.3°C 41.5°F5.3°C 81% 4.6 mph WSW7.4 kmh WSW 8.1 mph13.0 kmh 29.76 in1007.8 mb - 0.00 in0.0 mm 0.00 in0.0 mm
07:30 AM 47.4°F8.6°C 41.8°F5.4°C 81% 5.8 mph W9.3 kmh W 9.2 mph14.8 kmh 29.76 in1007.8 mb - 0.00 in0.0 mm 0.00 in0.0 mm
07:35 AM 47.8°F8.8°C 42.3°F5.7°C 81% 4.6 mph WSW7.4 kmh WSW 9.2 mph14.8 kmh 29.76 in1007.8 mb - 0.00 in0.0 mm 0.00 in0.0 mm
07:40 AM 48.2°F9.0°C 42.3°F5.7°C 80% 9.2 mph WSW14.8 kmh WSW 11.5 mph18.5 kmh 29.76 in1007.8 mb - 0.00 in0.0 mm 0.00 in0.0 mm
07:45 AM 48.6°F9.2°C 42.7°F5.9°C 80% 6.9 mph W11.1 kmh W 11.5 mph18.5 kmh 29.76 in1007.8 mb - 0.00 in0.0 mm 0.00 in0.0 mm
07:50 AM 49.0°F9.4°C 42.7°F5.9°C 79% 6.9 mph W11.1 kmh W 9.2 mph14.8 kmh 29.76 in1007.8 mb - 0.00 in0.0 mm 0.00 in0.0 mm
07:55 AM 49.3°F9.6°C 42.7°F5.9°C 78% 5.8 mph WSW9.3 kmh WSW 9.2 mph14.8 kmh 29.77 in1008.1 mb - 0.00 in0.0 mm 0.00 in0.0 mm
08:00 AM 49.6°F9.8°C 42.7°F5.9°C 77% 6.9 mph WSW11.1 kmh WSW 11.5 mph18.5 kmh 29.77 in1008.1 mb - 0.00 in0.0 mm 0.00 in0.0 mm
08:05 AM 50.0°F10.0°C 43.0°F6.1°C 77% 6.9 mph WSW11.1 kmh WSW 10.4 mph16.7 kmh 29.77 in1008.1 mb - 0.00 in0.0 mm 0.00 in0.0 mm
08:10 AM 50.3°F10.2°C 43.4°F6.3°C 77% 3.5 mph W5.6 kmh W 6.9 mph11.1 kmh 29.77 in1008.1 mb - 0.00 in0.0 mm 0.00 in0.0 mm
08:15 AM 50.4°F10.2°C 43.4°F6.3°C 77% 3.5 mph W5.6 kmh W 3.5 mph5.6 kmh 29.77 in1008.1 mb - 0.00 in0.0 mm 0.00 in0.0 mm
08:20 AM 50.3°F10.2°C 43.4°F6.3°C 77% 3.5 mph W5.6 kmh W 6.9 mph11.1 kmh 29.78 in1008.5 mb - 0.00 in0.0 mm 0.00 in0.0 mm
08:25 AM 50.3°F10.2°C 43.4°F6.3°C 77% 2.3 mph W3.7 kmh W 6.9 mph11.1 kmh 29.78 in1008.5 mb - 0.00 in0.0 mm 0.00 in0.0 mm
08:30 AM 50.4°F10.2°C 43.5°F6.4°C 77% 2.3 mph W3.7 kmh W 6.9 mph11.1 kmh 29.78 in1008.5 mb - 0.00 in0.0 mm 0.00 in0.0 mm
08:35 AM 50.4°F10.2°C 43.5°F6.4°C 77% 2.3 mph W3.7 kmh W 5.8 mph9.3 kmh 29.78 in1008.5 mb - 0.00 in0.0 mm 0.00 in0.0 mm
08:40 AM 50.5°F10.3°C 43.6°F6.4°C 77% 2.3 mph W3.7 kmh W 3.5 mph5.6 kmh 29.79 in1008.8 mb - 0.00 in0.0 mm 0.00 in0.0 mm
08:45 AM 50.7°F10.4°C 43.8°F6.6°C 77% 3.5 mph WNW5.6 kmh WNW 6.9 mph11.1 kmh 29.79 in1008.8 mb - 0.00 in0.0 mm 0.00 in0.0 mm
08:50 AM 50.9°F10.5°C 44.3°F6.8°C 78% 2.3 mph W3.7 kmh W 3.5 mph5.6 kmh 29.79 in1008.8 mb - 0.00 in0.0 mm 0.00 in0.0 mm
08:55 AM 51.1°F10.6°C 44.1°F6.7°C 77% 5.8 mph W9.3 kmh W 11.5 mph18.5 kmh 29.80 in1009.1 mb - 0.00 in0.0 mm 0.00 in0.0 mm
09:00 AM 51.3°F10.7°C 44.0°F6.7°C 76% 6.9 mph WSW11.1 kmh WSW 12.7 mph20.4 kmh 29.80 in1009.1 mb - 0.00 in0.0 mm 0.00 in0.0 mm
09:05 AM 51.5°F10.8°C 44.5°F6.9°C 77% 5.8 mph WSW9.3 kmh WSW 20.7 mph33.3 kmh 29.80 in1009.1 mb - 0.00 in0.0 mm 0.00 in0.0 mm
09:10 AM 51.6°F10.9°C 44.3°F6.8°C 76% 8.1 mph SW13.0 kmh SW 11.5 mph18.5 kmh 29.81 in1009.5 mb - 0.00 in0.0 mm 0.00 in0.0 mm
09:15 AM 51.5°F10.8°C 44.5°F6.9°C 77% 9.2 mph WSW14.8 kmh WSW 19.6 mph31.5 kmh 29.81 in1009.5 mb - 0.00 in0.0 mm 0.00 in0.0 mm
09:20 AM 51.2°F10.7°C 44.6°F7.0°C 78% 5.8 mph WSW9.3 kmh WSW 11.5 mph18.5 kmh 29.81 in1009.5 mb - 0.00 in0.0 mm 0.00 in0.0 mm
09:25 AM 51.2°F10.7°C 44.9°F7.2°C 79% 6.9 mph W11.1 kmh W 10.4 mph16.7 kmh 29.81 in1009.5 mb - 0.00 in0.0 mm 0.00 in0.0 mm
09:30 AM 51.4°F10.8°C 45.4°F7.4°C 80% 4.6 mph W7.4 kmh W 9.2 mph14.8 kmh 29.81 in1009.5 mb - 0.00 in0.0 mm 0.00 in0.0 mm
09:35 AM 51.8°F11.0°C 45.8°F7.7°C 80% 4.6 mph W7.4 kmh W 9.2 mph14.8 kmh 29.81 in1009.5 mb - 0.00 in0.0 mm 0.00 in0.0 mm
09:40 AM 52.3°F11.3°C 46.3°F7.9°C 80% 5.8 mph W9.3 kmh W 9.2 mph14.8 kmh 29.81 in1009.5 mb - 0.00 in0.0 mm 0.00 in0.0 mm
09:45 AM 52.9°F11.6°C 46.2°F7.9°C 78% 6.9 mph WSW11.1 kmh WSW 12.7 mph20.4 kmh 29.81 in1009.5 mb - 0.00 in0.0 mm 0.00 in0.0 mm
09:50 AM 53.3°F11.8°C 45.9°F7.7°C 76% 5.8 mph WSW9.3 kmh WSW 8.1 mph13.0 kmh 29.81 in1009.5 mb - 0.00 in0.0 mm 0.00 in0.0 mm
09:55 AM 53.6°F12.0°C 46.2°F7.9°C 76% 4.6 mph WSW7.4 kmh WSW 10.4 mph16.7 kmh 29.82 in1009.8 mb - 0.00 in0.0 mm 0.00 in0.0 mm
10:00 AM 53.6°F12.0°C 45.9°F7.7°C 75% 4.6 mph SW7.4 kmh SW 6.9 mph11.1 kmh 29.82 in1009.8 mb - 0.00 in0.0 mm 0.00 in0.0 mm
10:05 AM 53.7°F12.1°C 46.0°F7.8°C 75% 8.1 mph WSW13.0 kmh WSW 11.5 mph18.5 kmh 29.82 in1009.8 mb - 0.00 in0.0 mm 0.00 in0.0 mm
10:10 AM 54.0°F12.2°C 46.2°F7.9°C 75% 4.6 mph WSW7.4 kmh WSW 8.1 mph13.0 kmh 29.82 in1009.8 mb - 0.00 in0.0 mm 0.00 in0.0 mm
10:15 AM 54.3°F12.4°C 46.5°F8.1°C 75% 4.6 mph SW7.4 kmh SW 9.2 mph14.8 kmh 29.83 in1010.2 mb - 0.00 in0.0 mm 0.00 in0.0 mm
10:20 AM 54.5°F12.5°C 46.7°F8.2°C 75% 4.6 mph SW7.4 kmh SW 9.2 mph14.8 kmh 29.83 in1010.2 mb - 0.00 in0.0 mm 0.00 in0.0 mm
10:25 AM 54.8°F12.7°C 47.0°F8.3°C 75% 8.1 mph WSW13.0 kmh WSW 15.0 mph24.1 kmh 29.83 in1010.2 mb - 0.00 in0.0 mm 0.00 in0.0 mm
10:30 AM 54.8°F12.7°C 47.0°F8.3°C 75% 6.9 mph WSW11.1 kmh WSW 11.5 mph18.5 kmh 29.83 in1010.2 mb - 0.00 in0.0 mm 0.00 in0.0 mm
10:35 AM 54.8°F12.7°C 47.0°F8.3°C 75% 5.8 mph SW9.3 kmh SW 10.4 mph16.7 kmh 29.83 in1010.2 mb - 0.00 in0.0 mm 0.00 in0.0 mm
10:40 AM 54.6°F12.6°C 46.8°F8.2°C 75% 8.1 mph WSW13.0 kmh WSW 11.5 mph18.5 kmh 29.83 in1010.2 mb - 0.00 in0.0 mm 0.00 in0.0 mm
10:45 AM 54.3°F12.4°C 46.5°F8.1°C 75% 9.2 mph WSW14.8 kmh WSW 16.1 mph25.9 kmh 29.84 in1010.5 mb - 0.00 in0.0 mm 0.00 in0.0 mm
10:50 AM 53.9°F12.2°C 46.2°F7.9°C 75% 11.5 mph SW18.5 kmh SW 18.4 mph29.6 kmh 29.84 in1010.5 mb - 0.00 in0.0 mm 0.00 in0.0 mm
10:55 AM 53.5°F11.9°C 46.1°F7.8°C 76% 9.2 mph WSW14.8 kmh WSW 13.8 mph22.2 kmh 29.85 in1010.8 mb - 0.00 in0.0 mm 0.00 in0.0 mm
11:00 AM 52.9°F11.6°C 45.5°F7.5°C 76% 10.4 mph WSW16.7 kmh WSW 13.8 mph22.2 kmh 29.85 in1010.8 mb - 0.00 in0.0 mm 0.00 in0.0 mm
11:05 AM 52.5°F11.4°C 45.5°F7.5°C 77% 4.6 mph WSW7.4 kmh WSW 6.9 mph11.1 kmh 29.85 in1010.8 mb - 0.00 in0.0 mm 0.00 in0.0 mm
11:10 AM 52.3°F11.3°C 45.6°F7.6°C 78% 3.5 mph WSW5.6 kmh WSW 8.1 mph13.0 kmh 29.85 in1010.8 mb - 0.00 in0.0 mm 0.00 in0.0 mm
11:15 AM 52.2°F11.2°C 45.9°F7.7°C 79% 3.5 mph WSW5.6 kmh WSW 6.9 mph11.1 kmh 29.85 in1010.8 mb - 0.00 in0.0 mm 0.00 in0.0 mm
11:20 AM 52.0°F11.1°C 46.0°F7.8°C 80% 2.3 mph WSW3.7 kmh WSW 3.5 mph5.6 kmh 29.85 in1010.8 mb - 0.00 in0.0 mm 0.00 in0.0 mm
11:25 AM 51.9°F11.1°C 46.3°F7.9°C 81% 1.2 mph WSW1.9 kmh WSW 3.5 mph5.6 kmh 29.85 in1010.8 mb - 0.00 in0.0 mm 0.00 in0.0 mm
11:30 AM 51.9°F11.1°C 46.6°F8.1°C 82% 1.2 mph SW1.9 kmh SW 2.3 mph3.7 kmh 29.84 in1010.5 mb - 0.00 in0.0 mm 0.00 in0.0 mm
11:35 AM 51.9°F11.1°C 46.5°F8.1°C 82% 1.2 mph WSW1.9 kmh WSW 3.5 mph5.6 kmh 29.85 in1010.8 mb - 0.00 in0.0 mm 0.00 in0.0 mm
11:40 AM 51.9°F11.1°C 46.6°F8.1°C 82% 3.5 mph SW5.6 kmh SW 5.8 mph9.3 kmh 29.85 in1010.8 mb - 0.00 in0.0 mm 0.00 in0.0 mm
11:45 AM 52.0°F11.1°C 46.4°F8.0°C 81% 5.8 mph WSW9.3 kmh WSW 11.5 mph18.5 kmh 29.85 in1010.8 mb - 0.00 in0.0 mm 0.00 in0.0 mm
11:50 AM 52.3°F11.3°C 46.3°F7.9°C 80% 5.8 mph WSW9.3 kmh WSW 10.4 mph16.7 kmh 29.85 in1010.8 mb - 0.00 in0.0 mm 0.00 in0.0 mm
11:55 AM 53.3°F11.8°C 47.3°F8.5°C 80% 8.1 mph WSW13.0 kmh WSW 12.7 mph20.4 kmh 29.85 in1010.8 mb - 0.00 in0.0 mm 0.00 in0.0 mm
12:00 PM 54.3°F12.4°C 46.9°F8.3°C 76% 9.2 mph WSW14.8 kmh WSW 11.5 mph18.5 kmh 29.85 in1010.8 mb - 0.00 in0.0 mm 0.00 in0.0 mm
12:05 PM 54.8°F12.7°C 47.0°F8.3°C 75% 9.2 mph WSW14.8 kmh WSW 16.1 mph25.9 kmh 29.84 in1010.5 mb - 0.00 in0.0 mm 0.00 in0.0 mm
12:10 PM 54.8°F12.7°C 47.1°F8.4°C 75% 10.4 mph WSW16.7 kmh WSW 13.8 mph22.2 kmh 29.84 in1010.5 mb - 0.00 in0.0 mm 0.00 in0.0 mm
12:15 PM 54.9°F12.7°C 47.1°F8.4°C 75% 10.4 mph SW16.7 kmh SW 16.1 mph25.9 kmh 29.85 in1010.8 mb - 0.00 in0.0 mm 0.00 in0.0 mm
12:20 PM 54.6°F12.6°C 46.8°F8.2°C 75% 10.4 mph SW16.7 kmh SW 13.8 mph22.2 kmh 29.85 in1010.8 mb - 0.00 in0.0 mm 0.00 in0.0 mm
12:25 PM 54.2°F12.3°C 46.4°F8.0°C 75% 11.5 mph SW18.5 kmh SW 17.3 mph27.8 kmh 29.85 in1010.8 mb - 0.00 in0.0 mm 0.00 in0.0 mm
12:30 PM 53.9°F12.2°C 46.2°F7.9°C 75% 11.5 mph SW18.5 kmh SW 16.1 mph25.9 kmh 29.85 in1010.8 mb - 0.00 in0.0 mm 0.00 in0.0 mm
12:35 PM 53.7°F12.1°C 46.3°F7.9°C 76% 9.2 mph WSW14.8 kmh WSW 15.0 mph24.1 kmh 29.85 in1010.8 mb - 0.00 in0.0 mm 0.00 in0.0 mm
12:40 PM 53.7°F12.1°C 46.3°F7.9°C 76% 10.4 mph SW16.7 kmh SW 16.1 mph25.9 kmh 29.85 in1010.8 mb - 0.00 in0.0 mm 0.00 in0.0 mm
12:45 PM 54.6°F12.6°C 47.2°F8.4°C 76% 8.1 mph WSW13.0 kmh WSW 12.7 mph20.4 kmh 29.85 in1010.8 mb - 0.00 in0.0 mm 0.00 in0.0 mm
12:50 PM 54.8°F12.7°C 47.0°F8.3°C 75% 10.4 mph WSW16.7 kmh WSW 16.1 mph25.9 kmh 29.85 in1010.8 mb - 0.00 in0.0 mm 0.00 in0.0 mm
12:55 PM 54.6°F12.6°C 46.8°F8.2°C 75% 9.2 mph SW14.8 kmh SW 16.1 mph25.9 kmh 29.85 in1010.8 mb - 0.00 in0.0 mm 0.00 in0.0 mm
01:00 PM 54.8°F12.7°C 47.0°F8.3°C 75% 12.7 mph SW20.4 kmh SW 19.6 mph31.5 kmh 29.84 in1010.5 mb - 0.00 in0.0 mm 0.00 in0.0 mm
01:05 PM 54.6°F12.6°C 46.8°F8.2°C 75% 13.8 mph SW22.2 kmh SW 19.6 mph31.5 kmh 29.85 in1010.8 mb - 0.00 in0.0 mm 0.00 in0.0 mm
01:10 PM 54.5°F12.5°C 46.7°F8.2°C 75% 9.2 mph WSW14.8 kmh WSW 20.7 mph33.3 kmh 29.85 in1010.8 mb - 0.00 in0.0 mm 0.00 in0.0 mm
01:15 PM 54.6°F12.6°C 46.8°F8.2°C 75% 11.5 mph SW18.5 kmh SW 24.2 mph38.9 kmh 29.85 in1010.8 mb - 0.00 in0.0 mm 0.00 in0.0 mm
01:20 PM 54.5°F12.5°C 46.7°F8.2°C 75% 8.1 mph SW13.0 kmh SW 13.8 mph22.2 kmh 29.85 in1010.8 mb - 0.00 in0.0 mm 0.00 in0.0 mm
01:25 PM 54.6°F12.6°C 46.8°F8.2°C 75% 10.4 mph WSW16.7 kmh WSW 15.0 mph24.1 kmh 29.85 in1010.8 mb - 0.00 in0.0 mm 0.00 in0.0 mm
01:30 PM 54.7°F12.6°C 46.9°F8.3°C 75% 11.5 mph SW18.5 kmh SW 16.1 mph25.9 kmh 29.86 in1011.2 mb - 0.00 in0.0 mm 0.00 in0.0 mm
01:35 PM 54.6°F12.6°C 46.8°F8.2°C 75% 6.9 mph SW11.1 kmh SW 12.7 mph20.4 kmh 29.86 in1011.2 mb - 0.00 in0.0 mm 0.00 in0.0 mm
01:40 PM 54.5°F12.5°C 47.1°F8.4°C 76% 6.9 mph WSW11.1 kmh WSW 15.0 mph24.1 kmh 29.86 in1011.2 mb - 0.00 in0.0 mm 0.00 in0.0 mm
01:45 PM 54.4°F12.4°C 46.6°F8.1°C 75% 10.4 mph SW16.7 kmh SW 15.0 mph24.1 kmh 29.85 in1010.8 mb - 0.00 in0.0 mm 0.00 in0.0 mm
01:50 PM 54.1°F12.3°C 46.3°F7.9°C 75% 8.1 mph SW13.0 kmh SW 11.5 mph18.5 kmh 29.86 in1011.2 mb - 0.00 in0.0 mm 0.00 in0.0 mm
01:55 PM 53.9°F12.2°C 46.2°F7.9°C 75% 5.8 mph SW9.3 kmh SW 8.1 mph13.0 kmh 29.85 in1010.8 mb - 0.00 in0.0 mm 0.00 in0.0 mm
02:00 PM 54.0°F12.2°C 46.6°F8.1°C 76% 4.6 mph SW7.4 kmh SW 10.4 mph16.7 kmh 29.85 in1010.8 mb - 0.00 in0.0 mm 0.00 in0.0 mm
02:05 PM 54.2°F12.3°C 46.5°F8.1°C 75% 6.9 mph SW11.1 kmh SW 10.4 mph16.7 kmh 29.85 in1010.8 mb - 0.00 in0.0 mm 0.00 in0.0 mm
02:10 PM 54.9°F12.7°C 47.2°F8.4°C 75% 3.5 mph SW5.6 kmh SW 8.1 mph13.0 kmh 29.85 in1010.8 mb - 0.00 in0.0 mm 0.00 in0.0 mm
02:15 PM 55.3°F12.9°C 47.5°F8.6°C 75% 4.6 mph SW7.4 kmh SW 5.8 mph9.3 kmh 29.85 in1010.8 mb - 0.00 in0.0 mm 0.00 in0.0 mm
02:20 PM 55.4°F13.0°C 47.2°F8.4°C 74% 4.6 mph SW7.4 kmh SW 8.1 mph13.0 kmh 29.85 in1010.8 mb - 0.00 in0.0 mm 0.00 in0.0 mm
02:25 PM 55.6°F13.1°C 47.4°F8.6°C 74% 4.6 mph SW7.4 kmh SW 4.6 mph7.4 kmh 29.85 in1010.8 mb - 0.00 in0.0 mm 0.00 in0.0 mm
02:30 PM 55.5°F13.1°C 47.3°F8.5°C 74% 3.5 mph SW5.6 kmh SW 5.8 mph9.3 kmh 29.85 in1010.8 mb - 0.00 in0.0 mm 0.00 in0.0 mm
02:35 PM 55.3°F12.9°C 47.2°F8.4°C 74% 4.6 mph SW7.4 kmh SW 10.4 mph16.7 kmh 29.85 in1010.8 mb - 0.00 in0.0 mm 0.00 in0.0 mm
02:40 PM 55.1°F12.8°C 47.0°F8.3°C 74% 4.6 mph SW7.4 kmh SW 5.8 mph9.3 kmh 29.85 in1010.8 mb - 0.00 in0.0 mm 0.00 in0.0 mm
02:45 PM 54.9°F12.7°C 46.8°F8.2°C 74% 4.6 mph SW7.4 kmh SW 6.9 mph11.1 kmh 29.85 in1010.8 mb - 0.00 in0.0 mm 0.00 in0.0 mm
02:50 PM 54.9°F12.7°C 47.1°F8.4°C 75% 4.6 mph WSW7.4 kmh WSW 9.2 mph14.8 kmh 29.85 in1010.8 mb - 0.00 in0.0 mm 0.00 in0.0 mm
02:55 PM 54.8°F12.7°C 47.0°F8.3°C 75% 5.8 mph WSW9.3 kmh WSW 9.2 mph14.8 kmh 29.85 in1010.8 mb - 0.00 in0.0 mm 0.00 in0.0 mm
03:00 PM 54.8°F12.7°C 46.7°F8.2°C 74% 6.9 mph WSW11.1 kmh WSW 9.2 mph14.8 kmh 29.85 in1010.8 mb - 0.00 in0.0 mm 0.00 in0.0 mm
03:05 PM 54.8°F12.7°C 46.7°F8.2°C 74% 6.9 mph SW11.1 kmh SW 12.7 mph20.4 kmh 29.84 in1010.5 mb - 0.00 in0.0 mm 0.00 in0.0 mm
03:10 PM 54.9°F12.7°C 47.2°F8.4°C 75% 5.8 mph SW9.3 kmh SW 11.5 mph18.5 kmh 29.85 in1010.8 mb - 0.00 in0.0 mm 0.00 in0.0 mm
03:15 PM 55.0°F12.8°C 46.9°F8.3°C 74% 9.2 mph WSW14.8 kmh WSW 11.5 mph18.5 kmh 29.84 in1010.5 mb - 0.00 in0.0 mm 0.00 in0.0 mm
03:20 PM 55.0°F12.8°C 47.3°F8.5°C 75% 5.8 mph SW9.3 kmh SW 13.8 mph22.2 kmh 29.85 in1010.8 mb - 0.00 in0.0 mm 0.00 in0.0 mm
03:25 PM 55.1°F12.8°C 47.0°F8.3°C 74% 6.9 mph WSW11.1 kmh WSW 11.5 mph18.5 kmh 29.85 in1010.8 mb - 0.00 in0.0 mm 0.00 in0.0 mm
03:30 PM 55.2°F12.9°C 47.1°F8.4°C 74% 6.9 mph SW11.1 kmh SW 11.5 mph18.5 kmh 29.85 in1010.8 mb - 0.00 in0.0 mm 0.00 in0.0 mm
03:35 PM 55.3°F12.9°C 47.2°F8.4°C 74% 4.6 mph SSW7.4 kmh SSW 9.2 mph14.8 kmh 29.85 in1010.8 mb - 0.00 in0.0 mm 0.00 in0.0 mm
03:40 PM 55.3°F12.9°C 46.8°F8.2°C 73% 8.1 mph SW13.0 kmh SW 12.7 mph20.4 kmh 29.85 in1010.8 mb - 0.00 in0.0 mm 0.00 in0.0 mm
03:45 PM 55.3°F12.9°C 46.8°F8.2°C 73% 8.1 mph SW13.0 kmh SW 13.8 mph22.2 kmh 29.85 in1010.8 mb - 0.00 in0.0 mm 0.00 in0.0 mm
03:50 PM 55.2°F12.9°C 46.7°F8.2°C 73% 6.9 mph SW11.1 kmh SW 12.7 mph20.4 kmh 29.85 in1010.8 mb - 0.00 in0.0 mm 0.00 in0.0 mm
03:55 PM 55.0°F12.8°C 46.5°F8.1°C 73% 6.9 mph SW11.1 kmh SW 11.5 mph18.5 kmh 29.85 in1010.8 mb - 0.00 in0.0 mm 0.00 in0.0 mm
04:00 PM 54.9°F12.7°C 46.7°F8.2°C 74% 8.1 mph SW13.0 kmh SW 11.5 mph18.5 kmh 29.84 in1010.5 mb - 0.00 in0.0 mm 0.00 in0.0 mm
04:05 PM 54.8°F12.7°C 46.6°F8.1°C 74% 4.6 mph WSW7.4 kmh WSW 10.4 mph16.7 kmh 29.85 in1010.8 mb - 0.00 in0.0 mm 0.00 in0.0 mm
04:10 PM 54.6°F12.6°C 46.9°F8.3°C 75% 4.6 mph SW7.4 kmh SW 9.2 mph14.8 kmh 29.85 in1010.8 mb - 0.00 in0.0 mm 0.00 in0.0 mm
04:15 PM 54.6°F12.6°C 46.8°F8.2°C 75% 4.6 mph SW7.4 kmh SW 8.1 mph13.0 kmh 29.85 in1010.8 mb - 0.00 in0.0 mm 0.00 in0.0 mm
04:20 PM 54.4°F12.4°C 46.7°F8.2°C 75% 3.5 mph SW5.6 kmh SW 6.9 mph11.1 kmh 29.84 in1010.5 mb - 0.00 in0.0 mm 0.00 in0.0 mm
04:25 PM 54.4°F12.4°C 46.6°F8.1°C 75% 2.3 mph SW3.7 kmh SW 3.5 mph5.6 kmh 29.84 in1010.5 mb - 0.00 in0.0 mm 0.00 in0.0 mm
04:30 PM 54.3°F12.4°C 46.5°F8.1°C 75% 2.3 mph WSW3.7 kmh WSW 3.5 mph5.6 kmh 29.84 in1010.5 mb - 0.00 in0.0 mm 0.00 in0.0 mm
04:35 PM 54.2°F12.3°C 46.4°F8.0°C 75% 3.5 mph SW5.6 kmh SW 4.6 mph7.4 kmh 29.84 in1010.5 mb - 0.00 in0.0 mm 0.00 in0.0 mm
04:40 PM 54.1°F12.3°C 46.3°F7.9°C 75% 3.5 mph SW5.6 kmh SW 8.1 mph13.0 kmh 29.84 in1010.5 mb - 0.00 in0.0 mm 0.00 in0.0 mm
04:45 PM 54.1°F12.3°C 46.3°F7.9°C 75% 2.3 mph WSW3.7 kmh WSW 4.6 mph7.4 kmh 29.84 in1010.5 mb - 0.00 in0.0 mm 0.00 in0.0 mm
04:50 PM 54.0°F12.2°C 46.3°F7.9°C 75% 3.5 mph SW5.6 kmh SW 9.2 mph14.8 kmh 29.84 in1010.5 mb - 0.00 in0.0 mm 0.00 in0.0 mm
04:55 PM 53.9°F12.2°C 46.2°F7.9°C 75% 3.5 mph SSW5.6 kmh SSW 3.5 mph5.6 kmh 29.84 in1010.5 mb - 0.00 in0.0 mm 0.00 in0.0 mm
05:00 PM 53.8°F12.1°C 46.1°F7.8°C 75% 3.5 mph SW5.6 kmh SW 4.6 mph7.4 kmh 29.84 in1010.5 mb - 0.00 in0.0 mm 0.00 in0.0 mm
05:05 PM 53.8°F12.1°C 46.0°F7.8°C 75% 2.3 mph SW3.7 kmh SW 3.5 mph5.6 kmh 29.83 in1010.2 mb - 0.00 in0.0 mm 0.00 in0.0 mm
05:10 PM 53.7°F12.1°C 46.3°F7.9°C 76% 3.5 mph S5.6 kmh S 3.5 mph5.6 kmh 29.83 in1010.2 mb - 0.00 in0.0 mm 0.00 in0.0 mm
05:15 PM 53.7°F12.1°C 46.3°F7.9°C 76% 2.3 mph SSW3.7 kmh SSW 3.5 mph5.6 kmh 29.83 in1010.2 mb - 0.00 in0.0 mm 0.00 in0.0 mm
05:20 PM 53.6°F12.0°C 46.3°F7.9°C 76% 2.3 mph SSW3.7 kmh SSW 3.5 mph5.6 kmh 29.83 in1010.2 mb - 0.00 in0.0 mm 0.00 in0.0 mm
05:25 PM 53.6°F12.0°C 46.2°F7.9°C 76% 3.5 mph SSW5.6 kmh SSW 9.2 mph14.8 kmh 29.84 in1010.5 mb - 0.00 in0.0 mm 0.00 in0.0 mm
05:30 PM 53.6°F12.0°C 46.2°F7.9°C 76% 3.5 mph S5.6 kmh S 5.8 mph9.3 kmh 29.84 in1010.5 mb - 0.00 in0.0 mm 0.00 in0.0 mm
05:35 PM 53.7°F12.1°C 46.0°F7.8°C 75% 4.6 mph SW7.4 kmh SW 6.9 mph11.1 kmh 29.84 in1010.5 mb - 0.00 in0.0 mm 0.00 in0.0 mm
05:40 PM 53.8°F12.1°C 46.1°F7.8°C 75% 2.3 mph SW3.7 kmh SW 3.5 mph5.6 kmh 29.83 in1010.2 mb - 0.00 in0.0 mm 0.00 in0.0 mm
05:45 PM 53.7°F12.1°C 46.0°F7.8°C 75% 1.2 mph SW1.9 kmh SW 3.5 mph5.6 kmh 29.84 in1010.5 mb - 0.00 in0.0 mm 0.00 in0.0 mm
05:50 PM 53.7°F12.1°C 45.9°F7.7°C 75% 2.3 mph SW3.7 kmh SW 3.5 mph5.6 kmh 29.83 in1010.2 mb - 0.00 in0.0 mm 0.00 in0.0 mm
05:55 PM 53.6°F12.0°C 46.2°F7.9°C 76% 3.5 mph SW5.6 kmh SW 4.6 mph7.4 kmh 29.83 in1010.2 mb - 0.00 in0.0 mm 0.00 in0.0 mm
06:00 PM 53.5°F11.9°C 45.8°F7.7°C 75% 3.5 mph SSW5.6 kmh SSW 3.5 mph5.6 kmh 29.83 in1010.2 mb - 0.00 in0.0 mm 0.00 in0.0 mm
06:05 PM 53.5°F11.9°C 46.1°F7.8°C 76% 2.3 mph SW3.7 kmh SW 3.5 mph5.6 kmh 29.83 in1010.2 mb - 0.00 in0.0 mm 0.00 in0.0 mm
06:10 PM 53.5°F11.9°C 46.1°F7.8°C 76% 1.2 mph SSW1.9 kmh SSW 3.5 mph5.6 kmh 29.83 in1010.2 mb - 0.00 in0.0 mm 0.00 in0.0 mm
06:15 PM 53.4°F11.9°C 46.0°F7.8°C 76% 1.2 mph SSW1.9 kmh SSW 2.3 mph3.7 kmh 29.83 in1010.2 mb - 0.00 in0.0 mm 0.00 in0.0 mm
06:20 PM 53.3°F11.8°C 45.9°F7.7°C 76% 2.3 mph SSW3.7 kmh SSW 2.3 mph3.7 kmh 29.83 in1010.2 mb - 0.00 in0.0 mm 0.00 in0.0 mm
06:25 PM 53.2°F11.8°C 45.5°F7.5°C 75% 1.2 mph SSW1.9 kmh SSW 2.3 mph3.7 kmh 29.83 in1010.2 mb - 0.00 in0.0 mm 0.00 in0.0 mm
06:30 PM 53.2°F11.8°C 45.5°F7.5°C 75% 3.5 mph SSW5.6 kmh SSW 3.5 mph5.6 kmh 29.82 in1009.8 mb - 0.00 in0.0 mm 0.00 in0.0 mm
06:35 PM 53.3°F11.8°C 45.9°F7.7°C 76% 1.2 mph SSW1.9 kmh SSW 2.3 mph3.7 kmh 29.82 in1009.8 mb - 0.00 in0.0 mm 0.00 in0.0 mm
06:40 PM 53.2°F11.8°C 45.8°F7.7°C 76% 1.2 mph SSE1.9 kmh SSE 3.5 mph5.6 kmh 29.82 in1009.8 mb - 0.00 in0.0 mm 0.00 in0.0 mm
06:45 PM 53.3°F11.8°C 45.9°F7.7°C 76% Calm Calm 2.3 mph3.7 kmh 29.82 in1009.8 mb - 0.00 in0.0 mm 0.00 in0.0 mm
06:50 PM 53.5°F11.9°C 45.8°F7.7°C 75% 3.5 mph E5.6 kmh E 3.5 mph5.6 kmh 29.82 in1009.8 mb - 0.00 in0.0 mm 0.00 in0.0 mm
06:55 PM 53.6°F12.0°C 45.9°F7.7°C 75% 3.5 mph E5.6 kmh E 3.5 mph5.6 kmh 29.81 in1009.5 mb - 0.00 in0.0 mm 0.00 in0.0 mm
07:00 PM 53.7°F12.1°C 46.0°F7.8°C 75% 3.5 mph ESE5.6 kmh ESE 3.5 mph5.6 kmh 29.80 in1009.1 mb - 0.00 in0.0 mm 0.00 in0.0 mm
07:05 PM 53.7°F12.1°C 46.0°F7.8°C 75% 3.5 mph ESE5.6 kmh ESE 3.5 mph5.6 kmh 29.80 in1009.1 mb - 0.00 in0.0 mm 0.00 in0.0 mm
07:10 PM 53.7°F12.1°C 46.0°F7.8°C 75% 1.2 mph E1.9 kmh E 2.3 mph3.7 kmh 29.80 in1009.1 mb - 0.00 in0.0 mm 0.00 in0.0 mm
07:15 PM 53.7°F12.1°C 46.0°F7.8°C 75% 3.5 mph SE5.6 kmh SE 5.8 mph9.3 kmh 29.80 in1009.1 mb - 0.00 in0.0 mm 0.00 in0.0 mm
07:20 PM 53.7°F12.1°C 46.3°F7.9°C 76% 2.3 mph SE3.7 kmh SE 3.5 mph5.6 kmh 29.80 in1009.1 mb - 0.00 in0.0 mm 0.00 in0.0 mm
07:25 PM 53.6°F12.0°C 45.9°F7.7°C 75% 2.3 mph S3.7 kmh S 3.5 mph5.6 kmh 29.81 in1009.5 mb - 0.00 in0.0 mm 0.00 in0.0 mm
07:30 PM 53.6°F12.0°C 46.2°F7.9°C 76% 1.2 mph SW1.9 kmh SW 2.3 mph3.7 kmh 29.80 in1009.1 mb - 0.00 in0.0 mm 0.00 in0.0 mm
07:35 PM 53.5°F11.9°C 46.1°F7.8°C 76% Calm Calm 1.2 mph1.9 kmh 29.80 in1009.1 mb - 0.00 in0.0 mm 0.00 in0.0 mm
07:40 PM 53.3°F11.8°C 46.3°F7.9°C 77% 1.2 mph SW1.9 kmh SW 1.2 mph1.9 kmh 29.80 in1009.1 mb - 0.00 in0.0 mm 0.00 in0.0 mm
07:45 PM 53.0°F11.7°C 46.0°F7.8°C 77% 1.2 mph SW1.9 kmh SW 2.3 mph3.7 kmh 29.80 in1009.1 mb - 0.00 in0.0 mm 0.00 in0.0 mm
07:50 PM 52.8°F11.6°C 46.1°F7.8°C 78% 1.2 mph SW1.9 kmh SW 2.3 mph3.7 kmh 29.80 in1009.1 mb - 0.00 in0.0 mm 0.00 in0.0 mm
07:55 PM 52.6°F11.4°C 46.3°F7.9°C 79% 1.2 mph SW1.9 kmh SW 2.3 mph3.7 kmh 29.80 in1009.1 mb - 0.00 in0.0 mm 0.00 in0.0 mm
08:00 PM 52.4°F11.3°C 46.4°F8.0°C 80% 1.2 mph SW1.9 kmh SW 2.3 mph3.7 kmh 29.80 in1009.1 mb - 0.00 in0.0 mm 0.00 in0.0 mm
08:05 PM 52.3°F11.3°C 46.3°F7.9°C 80% Calm Calm -- 29.80 in1009.1 mb - 0.00 in0.0 mm 0.00 in0.0 mm
08:10 PM 52.1°F11.2°C 46.1°F7.8°C 80% Calm Calm -- 29.79 in1008.8 mb - 0.00 in0.0 mm 0.00 in0.0 mm
08:15 PM 52.0°F11.1°C 46.3°F7.9°C 81% Calm Calm -- 29.80 in1009.1 mb - 0.00 in0.0 mm 0.00 in0.0 mm
08:20 PM 51.9°F11.1°C 46.3°F7.9°C 81% Calm Calm -- 29.80 in1009.1 mb - 0.00 in0.0 mm 0.00 in0.0 mm
08:25 PM 51.8°F11.0°C 46.5°F8.1°C 82% Calm Calm -- 29.79 in1008.8 mb - 0.00 in0.0 mm 0.00 in0.0 mm
08:30 PM 51.8°F11.0°C 46.5°F8.1°C 82% 2.3 mph ENE3.7 kmh ENE 3.5 mph5.6 kmh 29.79 in1008.8 mb - 0.00 in0.0 mm 0.00 in0.0 mm
08:35 PM 51.7°F10.9°C 46.7°F8.2°C 83% 1.2 mph ENE1.9 kmh ENE 3.5 mph5.6 kmh 29.79 in1008.8 mb - 0.00 in0.0 mm 0.00 in0.0 mm
08:40 PM 51.7°F10.9°C 46.7°F8.2°C 83% 2.3 mph ENE3.7 kmh ENE 3.5 mph5.6 kmh 29.79 in1008.8 mb - 0.00 in0.0 mm 0.00 in0.0 mm
08:45 PM 51.7°F10.9°C 46.7°F8.2°C 83% 2.3 mph ENE3.7 kmh ENE 3.5 mph5.6 kmh 29.79 in1008.8 mb - 0.00 in0.0 mm 0.00 in0.0 mm
08:50 PM 51.7°F10.9°C 47.0°F8.3°C 84% 2.3 mph ENE3.7 kmh ENE 3.5 mph5.6 kmh 29.78 in1008.5 mb - 0.00 in0.0 mm 0.00 in0.0 mm
08:55 PM 51.7°F10.9°C 47.0°F8.3°C 84% 3.5 mph E5.6 kmh E 5.8 mph9.3 kmh 29.78 in1008.5 mb - 0.00 in0.0 mm 0.00 in0.0 mm
09:00 PM 51.7°F10.9°C 47.3°F8.5°C 85% 1.2 mph ENE1.9 kmh ENE 3.5 mph5.6 kmh 29.78 in1008.5 mb - 0.00 in0.0 mm 0.00 in0.0 mm
09:05 PM 51.8°F11.0°C 47.4°F8.6°C 85% 3.5 mph SE5.6 kmh SE 3.5 mph5.6 kmh 29.78 in1008.5 mb - 0.00 in0.0 mm 0.00 in0.0 mm
09:10 PM 51.9°F11.1°C 47.5°F8.6°C 85% 3.5 mph SE5.6 kmh SE 4.6 mph7.4 kmh 29.77 in1008.1 mb - 0.00 in0.0 mm 0.00 in0.0 mm
09:15 PM 51.8°F11.0°C 47.4°F8.6°C 85% 3.5 mph ENE5.6 kmh ENE 3.5 mph5.6 kmh 29.77 in1008.1 mb - 0.01 in0.3 mm 0.01 in0.3 mm
09:20 PM 51.8°F11.0°C 47.4°F8.6°C 85% 1.2 mph E1.9 kmh E 3.5 mph5.6 kmh 29.77 in1008.1 mb - 0.02 in0.5 mm 0.02 in0.5 mm
09:25 PM 51.9°F11.1°C 47.8°F8.8°C 86% 2.3 mph E3.7 kmh E 3.5 mph5.6 kmh 29.77 in1008.1 mb - 0.01 in0.3 mm 0.03 in0.8 mm
09:30 PM 51.9°F11.1°C 47.8°F8.8°C 86% 2.3 mph ESE3.7 kmh ESE 3.5 mph5.6 kmh 29.76 in1007.8 mb - 0.01 in0.3 mm 0.03 in0.8 mm
09:35 PM 51.9°F11.1°C 47.8°F8.8°C 86% 1.2 mph ESE1.9 kmh ESE 3.5 mph5.6 kmh 29.76 in1007.8 mb - 0.00 in0.0 mm 0.03 in0.8 mm
09:40 PM 51.9°F11.1°C 47.8°F8.8°C 86% 1.2 mph ESE1.9 kmh ESE 1.2 mph1.9 kmh 29.77 in1008.1 mb - 0.00 in0.0 mm 0.03 in0.8 mm
09:45 PM 52.0°F11.1°C 48.3°F9.1°C 87% 2.3 mph ESE3.7 kmh ESE 5.8 mph9.3 kmh 29.77 in1008.1 mb - 0.02 in0.5 mm 0.06 in1.5 mm
09:50 PM 52.1°F11.2°C 48.3°F9.1°C 87% 2.3 mph ENE3.7 kmh ENE 6.9 mph11.1 kmh 29.76 in1007.8 mb - 0.02 in0.5 mm 0.07 in1.8 mm
09:55 PM 52.1°F11.2°C 48.4°F9.1°C 87% 2.3 mph E3.7 kmh E 3.5 mph5.6 kmh 29.76 in1007.8 mb - 0.01 in0.3 mm 0.07 in1.8 mm
10:00 PM 52.2°F11.2°C 48.4°F9.1°C 87% 2.3 mph E3.7 kmh E 3.5 mph5.6 kmh 29.76 in1007.8 mb - 0.01 in0.3 mm 0.08 in2.0 mm
10:05 PM 52.3°F11.3°C 48.5°F9.2°C 87% 3.5 mph E5.6 kmh E 4.6 mph7.4 kmh 29.76 in1007.8 mb - 0.01 in0.3 mm 0.09 in2.3 mm
10:10 PM 52.3°F11.3°C 48.5°F9.2°C 87% Calm Calm -- 29.76 in1007.8 mb - 0.02 in0.5 mm 0.10 in2.5 mm
10:15 PM 52.4°F11.3°C 48.6°F9.2°C 87% 3.5 mph E5.6 kmh E 5.8 mph9.3 kmh 29.76 in1007.8 mb - 0.02 in0.5 mm 0.12 in3.0 mm
10:20 PM 52.4°F11.3°C 48.6°F9.2°C 87% 1.2 mph E1.9 kmh E 1.2 mph1.9 kmh 29.75 in1007.5 mb - 0.02 in0.5 mm 0.12 in3.0 mm
10:25 PM 52.4°F11.3°C 48.6°F9.2°C 87% Calm Calm -- 29.75 in1007.5 mb - 0.01 in0.3 mm 0.13 in3.3 mm
10:30 PM 52.4°F11.3°C 48.6°F9.2°C 87% Calm Calm -- 29.75 in1007.5 mb - 0.00 in0.0 mm 0.13 in3.3 mm
10:35 PM 52.4°F11.3°C 48.6°F9.2°C 87% Calm Calm 2.3 mph3.7 kmh 29.75 in1007.5 mb - 0.01 in0.3 mm 0.14 in3.6 mm
10:40 PM 52.4°F11.3°C 48.6°F9.2°C 87% Calm Calm 2.3 mph3.7 kmh 29.75 in1007.5 mb - 0.01 in0.3 mm 0.14 in3.6 mm
10:45 PM 52.6°F11.4°C 48.8°F9.3°C 87% 1.2 mph E1.9 kmh E 2.3 mph3.7 kmh 29.74 in1007.1 mb - 0.01 in0.3 mm 0.15 in3.8 mm
10:50 PM 52.6°F11.4°C 49.1°F9.5°C 88% Calm Calm -- 29.74 in1007.1 mb - 0.00 in0.0 mm 0.15 in3.8 mm
10:55 PM 52.7°F11.5°C 49.2°F9.6°C 88% 1.2 mph E1.9 kmh E 2.3 mph3.7 kmh 29.74 in1007.1 mb - 0.00 in0.0 mm 0.15 in3.8 mm
11:00 PM 52.8°F11.6°C 49.3°F9.6°C 88% Calm Calm 3.5 mph5.6 kmh 29.73 in1006.8 mb - 0.00 in0.0 mm 0.22 in5.6 mm
11:05 PM 52.8°F11.6°C 49.4°F9.7°C 88% 2.3 mph E3.7 kmh E 3.5 mph5.6 kmh 29.73 in1006.8 mb - 0.00 in0.0 mm 0.22 in5.6 mm
11:10 PM 52.9°F11.6°C 49.4°F9.7°C 88% Calm Calm -- 29.73 in1006.8 mb - 0.00 in0.0 mm 0.22 in5.6 mm
11:15 PM 53.0°F11.7°C 49.5°F9.7°C 88% Calm Calm -- 29.73 in1006.8 mb - 0.00 in0.0 mm 0.22 in5.6 mm
11:20 PM 53.0°F11.7°C 49.5°F9.7°C 88% 1.2 mph ENE1.9 kmh ENE 3.5 mph5.6 kmh 29.73 in1006.8 mb - 0.00 in0.0 mm 0.22 in5.6 mm
11:25 PM 52.9°F11.6°C 49.4°F9.7°C 88% 1.2 mph ENE1.9 kmh ENE 2.3 mph3.7 kmh 29.73 in1006.8 mb - 0.00 in0.0 mm 0.22 in5.6 mm
11:30 PM 52.9°F11.6°C 49.4°F9.7°C 88% 1.2 mph ENE1.9 kmh ENE 3.5 mph5.6 kmh 29.72 in1006.4 mb - 0.01 in0.3 mm 0.01 in0.3 mm
11:35 PM 52.9°F11.6°C 49.4°F9.7°C 88% Calm Calm 1.2 mph1.9 kmh 29.72 in1006.4 mb - 0.00 in0.0 mm 0.01 in0.3 mm
11:40 PM 52.9°F11.6°C 49.4°F9.7°C 88% Calm Calm -- 29.72 in1006.4 mb - 0.00 in0.0 mm 0.01 in0.3 mm
11:45 PM 52.9°F11.6°C 49.4°F9.7°C 88% Calm Calm 2.3 mph3.7 kmh 29.72 in1006.4 mb - 0.00 in0.0 mm 0.01 in0.3 mm
11:50 PM 52.9°F11.6°C 49.4°F9.7°C 88% 2.3 mph N3.7 kmh N 3.5 mph5.6 kmh 29.72 in1006.4 mb - 0.01 in0.3 mm 0.02 in0.5 mm
11:55 PM 53.0°F11.7°C 49.5°F9.7°C 88% Calm Calm 1.2 mph1.9 kmh 29.72 in1006.4 mb - 0.00 in0.0 mm 0.02 in0.5 mm